sensor_id;sensor_type;location;lat;lon;timestamp;P1;durP1;ratioP1;P2;durP2;ratioP2
3415;SDS011;1721;51.238;9.562;2023-11-21T00:00:53;6.47;;;2.10;;
3415;SDS011;1721;51.238;9.562;2023-11-21T00:03:18;4.30;;;1.97;;
3415;SDS011;1721;51.238;9.562;2023-11-21T00:05:44;3.13;;;1.20;;
3415;SDS011;1721;51.238;9.562;2023-11-21T00:08:09;5.00;;;1.50;;
3415;SDS011;1721;51.238;9.562;2023-11-21T00:10:35;3.80;;;1.47;;
3415;SDS011;1721;51.238;9.562;2023-11-21T00:13:03;5.90;;;1.80;;
3415;SDS011;1721;51.238;9.562;2023-11-21T00:15:28;5.30;;;1.90;;
3415;SDS011;1721;51.238;9.562;2023-11-21T00:17:54;4.47;;;1.70;;
3415;SDS011;1721;51.238;9.562;2023-11-21T00:20:20;6.43;;;1.90;;
3415;SDS011;1721;51.238;9.562;2023-11-21T00:22:45;3.47;;;1.55;;
3415;SDS011;1721;51.238;9.562;2023-11-21T00:25:11;5.00;;;2.27;;
3415;SDS011;1721;51.238;9.562;2023-11-21T00:27:39;5.53;;;2.28;;
3415;SDS011;1721;51.238;9.562;2023-11-21T00:30:05;10.00;;;2.83;;
3415;SDS011;1721;51.238;9.562;2023-11-21T00:32:31;11.80;;;1.70;;
3415;SDS011;1721;51.238;9.562;2023-11-21T00:34:57;4.77;;;1.83;;
3415;SDS011;1721;51.238;9.562;2023-11-21T00:37:22;5.87;;;2.33;;
3415;SDS011;1721;51.238;9.562;2023-11-21T00:39:49;4.82;;;1.90;;
3415;SDS011;1721;51.238;9.562;2023-11-21T00:42:14;7.83;;;2.03;;
3415;SDS011;1721;51.238;9.562;2023-11-21T00:44:40;4.60;;;1.47;;
3415;SDS011;1721;51.238;9.562;2023-11-21T00:47:05;8.03;;;2.43;;
3415;SDS011;1721;51.238;9.562;2023-11-21T00:49:31;9.60;;;1.93;;
3415;SDS011;1721;51.238;9.562;2023-11-21T00:51:57;4.90;;;1.85;;
3415;SDS011;1721;51.238;9.562;2023-11-21T00:54:23;6.70;;;2.30;;
3415;SDS011;1721;51.238;9.562;2023-11-21T00:56:48;7.53;;;1.90;;
3415;SDS011;1721;51.238;9.562;2023-11-21T00:59:14;6.30;;;2.47;;
3415;SDS011;1721;51.238;9.562;2023-11-21T01:01:39;4.50;;;1.93;;
3415;SDS011;1721;51.238;9.562;2023-11-21T01:04:05;3.80;;;1.60;;
3415;SDS011;1721;51.238;9.562;2023-11-21T01:06:32;3.25;;;1.10;;
3415;SDS011;1721;51.238;9.562;2023-11-21T01:08:57;2.83;;;1.30;;
3415;SDS011;1721;51.238;9.562;2023-11-21T01:11:23;4.07;;;1.53;;
3415;SDS011;1721;51.238;9.562;2023-11-21T01:13:49;6.40;;;1.60;;
3415;SDS011;1721;51.238;9.562;2023-11-21T01:16:14;5.03;;;1.63;;
3415;SDS011;1721;51.238;9.562;2023-11-21T01:18:40;4.00;;;1.60;;
3415;SDS011;1721;51.238;9.562;2023-11-21T01:21:05;5.70;;;1.97;;
3415;SDS011;1721;51.238;9.562;2023-11-21T01:23:32;12.20;;;2.38;;
3415;SDS011;1721;51.238;9.562;2023-11-21T01:25:58;5.07;;;1.73;;
3415;SDS011;1721;51.238;9.562;2023-11-21T01:28:23;4.57;;;1.80;;
3415;SDS011;1721;51.238;9.562;2023-11-21T01:30:49;7.33;;;1.60;;
3415;SDS011;1721;51.238;9.562;2023-11-21T01:33:15;4.27;;;1.50;;
3415;SDS011;1721;51.238;9.562;2023-11-21T01:35:41;17.47;;;2.00;;
3415;SDS011;1721;51.238;9.562;2023-11-21T01:38:07;4.30;;;1.48;;
3415;SDS011;1721;51.238;9.562;2023-11-21T01:40:35;3.65;;;1.50;;
3415;SDS011;1721;51.238;9.562;2023-11-21T01:43:01;6.40;;;1.40;;
3415;SDS011;1721;51.238;9.562;2023-11-21T01:45:29;4.43;;;1.25;;
3415;SDS011;1721;51.238;9.562;2023-11-21T01:47:58;5.82;;;1.85;;
3415;SDS011;1721;51.238;9.562;2023-11-21T01:50:25;8.55;;;1.88;;
3415;SDS011;1721;51.238;9.562;2023-11-21T01:52:52;5.28;;;1.40;;
3415;SDS011;1721;51.238;9.562;2023-11-21T01:55:18;6.10;;;2.35;;
3415;SDS011;1721;51.238;9.562;2023-11-21T01:57:44;3.97;;;1.80;;
3415;SDS011;1721;51.238;9.562;2023-11-21T02:00:13;8.90;;;1.83;;
3415;SDS011;1721;51.238;9.562;2023-11-21T02:02:47;9.70;;;1.90;;
3415;SDS011;1721;51.238;9.562;2023-11-21T02:05:17;5.47;;;1.75;;
3415;SDS011;1721;51.238;9.562;2023-11-21T02:07:44;3.67;;;1.60;;
3415;SDS011;1721;51.238;9.562;2023-11-21T02:10:13;12.05;;;1.88;;
3415;SDS011;1721;51.238;9.562;2023-11-21T02:12:40;5.63;;;2.38;;
3415;SDS011;1721;51.238;9.562;2023-11-21T02:15:07;3.80;;;1.58;;
3415;SDS011;1721;51.238;9.562;2023-11-21T02:17:40;3.70;;;1.52;;
3415;SDS011;1721;51.238;9.562;2023-11-21T02:20:08;5.68;;;1.80;;
3415;SDS011;1721;51.238;9.562;2023-11-21T02:22:40;8.88;;;2.15;;
3415;SDS011;1721;51.238;9.562;2023-11-21T02:25:07;5.60;;;2.00;;
3415;SDS011;1721;51.238;9.562;2023-11-21T02:27:33;14.00;;;1.88;;
3415;SDS011;1721;51.238;9.562;2023-11-21T02:29:58;6.27;;;2.30;;
3415;SDS011;1721;51.238;9.562;2023-11-21T02:32:25;4.32;;;1.63;;
3415;SDS011;1721;51.238;9.562;2023-11-21T02:34:51;6.90;;;2.23;;
3415;SDS011;1721;51.238;9.562;2023-11-21T02:37:17;6.30;;;2.60;;
3415;SDS011;1721;51.238;9.562;2023-11-21T02:39:42;7.00;;;2.20;;
3415;SDS011;1721;51.238;9.562;2023-11-21T02:42:08;14.20;;;2.70;;
3415;SDS011;1721;51.238;9.562;2023-11-21T02:44:33;8.43;;;3.13;;
3415;SDS011;1721;51.238;9.562;2023-11-21T02:46:59;7.88;;;3.20;;
3415;SDS011;1721;51.238;9.562;2023-11-21T02:49:25;9.93;;;2.97;;
3415;SDS011;1721;51.238;9.562;2023-11-21T02:51:53;8.55;;;2.85;;
3415;SDS011;1721;51.238;9.562;2023-11-21T02:54:19;8.48;;;2.25;;
3415;SDS011;1721;51.238;9.562;2023-11-21T02:56:47;10.55;;;2.55;;
3415;SDS011;1721;51.238;9.562;2023-11-21T02:59:13;6.13;;;2.35;;
3415;SDS011;1721;51.238;9.562;2023-11-21T03:01:38;9.70;;;2.90;;
3415;SDS011;1721;51.238;9.562;2023-11-21T03:04:04;6.70;;;2.23;;
3415;SDS011;1721;51.238;9.562;2023-11-21T03:06:30;7.40;;;3.27;;
3415;SDS011;1721;51.238;9.562;2023-11-21T03:08:55;6.67;;;2.60;;
3415;SDS011;1721;51.238;9.562;2023-11-21T03:11:21;6.37;;;2.83;;
3415;SDS011;1721;51.238;9.562;2023-11-21T03:13:46;5.40;;;2.53;;
3415;SDS011;1721;51.238;9.562;2023-11-21T03:16:12;4.70;;;2.00;;
3415;SDS011;1721;51.238;9.562;2023-11-21T03:18:38;9.30;;;2.67;;
3415;SDS011;1721;51.238;9.562;2023-11-21T03:21:07;6.07;;;2.30;;
3415;SDS011;1721;51.238;9.562;2023-11-21T03:23:34;8.48;;;2.45;;
3415;SDS011;1721;51.238;9.562;2023-11-21T03:26:00;7.65;;;3.00;;
3415;SDS011;1721;51.238;9.562;2023-11-21T03:28:26;9.37;;;1.93;;
3415;SDS011;1721;51.238;9.562;2023-11-21T03:30:52;6.80;;;2.53;;
3415;SDS011;1721;51.238;9.562;2023-11-21T03:33:18;4.70;;;2.13;;
3415;SDS011;1721;51.238;9.562;2023-11-21T03:35:44;8.23;;;2.63;;
3415;SDS011;1721;51.238;9.562;2023-11-21T03:38:10;6.67;;;2.43;;
3415;SDS011;1721;51.238;9.562;2023-11-21T03:40:35;4.70;;;2.03;;
3415;SDS011;1721;51.238;9.562;2023-11-21T03:43:01;4.67;;;2.17;;
3415;SDS011;1721;51.238;9.562;2023-11-21T03:45:26;4.63;;;1.93;;
3415;SDS011;1721;51.238;9.562;2023-11-21T03:47:52;14.63;;;3.10;;
3415;SDS011;1721;51.238;9.562;2023-11-21T03:50:17;7.43;;;2.87;;
3415;SDS011;1721;51.238;9.562;2023-11-21T03:52:47;4.67;;;1.97;;
3415;SDS011;1721;51.238;9.562;2023-11-21T03:55:13;7.63;;;2.60;;
3415;SDS011;1721;51.238;9.562;2023-11-21T03:57:39;4.22;;;1.73;;
3415;SDS011;1721;51.238;9.562;2023-11-21T04:00:05;5.40;;;1.70;;
3415;SDS011;1721;51.238;9.562;2023-11-21T04:02:33;4.40;;;1.20;;
3415;SDS011;1721;51.238;9.562;2023-11-21T04:04:59;8.13;;;2.15;;
3415;SDS011;1721;51.238;9.562;2023-11-21T04:07:25;11.00;;;2.40;;
3415;SDS011;1721;51.238;9.562;2023-11-21T04:09:50;4.83;;;1.63;;
3415;SDS011;1721;51.238;9.562;2023-11-21T04:12:16;5.37;;;1.83;;
3415;SDS011;1721;51.238;9.562;2023-11-21T04:14:42;10.50;;;2.13;;
3415;SDS011;1721;51.238;9.562;2023-11-21T04:17:07;7.80;;;1.63;;
3415;SDS011;1721;51.238;9.562;2023-11-21T04:19:34;4.10;;;1.38;;
3415;SDS011;1721;51.238;9.562;2023-11-21T04:22:00;4.50;;;1.87;;
3415;SDS011;1721;51.238;9.562;2023-11-21T04:24:25;3.00;;;1.00;;
3415;SDS011;1721;51.238;9.562;2023-11-21T04:26:51;4.03;;;1.50;;
3415;SDS011;1721;51.238;9.562;2023-11-21T04:29:16;3.80;;;1.10;;
3415;SDS011;1721;51.238;9.562;2023-11-21T04:31:42;2.50;;;1.07;;
3415;SDS011;1721;51.238;9.562;2023-11-21T04:34:08;5.13;;;1.93;;
3415;SDS011;1721;51.238;9.562;2023-11-21T04:36:33;8.23;;;1.77;;
3415;SDS011;1721;51.238;9.562;2023-11-21T04:39:00;10.35;;;1.40;;
3415;SDS011;1721;51.238;9.562;2023-11-21T04:41:25;5.73;;;2.80;;
3415;SDS011;1721;51.238;9.562;2023-11-21T04:43:51;4.53;;;1.60;;
3415;SDS011;1721;51.238;9.562;2023-11-21T04:46:17;6.80;;;1.87;;
3415;SDS011;1721;51.238;9.562;2023-11-21T04:48:42;4.43;;;1.20;;
3415;SDS011;1721;51.238;9.562;2023-11-21T04:51:09;4.72;;;1.70;;
3415;SDS011;1721;51.238;9.562;2023-11-21T04:53:36;5.63;;;1.52;;
3415;SDS011;1721;51.238;9.562;2023-11-21T04:56:02;4.60;;;1.40;;
3415;SDS011;1721;51.238;9.562;2023-11-21T04:58:28;8.23;;;1.95;;
3415;SDS011;1721;51.238;9.562;2023-11-21T05:00:54;14.00;;;2.47;;
3415;SDS011;1721;51.238;9.562;2023-11-21T05:03:19;5.13;;;2.10;;
3415;SDS011;1721;51.238;9.562;2023-11-21T05:05:45;5.72;;;2.00;;
3415;SDS011;1721;51.238;9.562;2023-11-21T05:08:11;5.97;;;2.47;;
3415;SDS011;1721;51.238;9.562;2023-11-21T05:10:36;10.03;;;2.47;;
3415;SDS011;1721;51.238;9.562;2023-11-21T05:13:04;5.30;;;2.00;;
3415;SDS011;1721;51.238;9.562;2023-11-21T05:15:29;9.83;;;2.63;;
3415;SDS011;1721;51.238;9.562;2023-11-21T05:17:55;7.77;;;2.10;;
3415;SDS011;1721;51.238;9.562;2023-11-21T05:20:25;7.32;;;2.33;;
3415;SDS011;1721;51.238;9.562;2023-11-21T05:22:50;8.50;;;2.63;;
3415;SDS011;1721;51.238;9.562;2023-11-21T05:25:16;10.93;;;2.80;;
3415;SDS011;1721;51.238;9.562;2023-11-21T05:27:45;8.90;;;3.10;;
3415;SDS011;1721;51.238;9.562;2023-11-21T05:30:12;6.93;;;3.35;;
3415;SDS011;1721;51.238;9.562;2023-11-21T05:32:39;8.43;;;2.35;;
3415;SDS011;1721;51.238;9.562;2023-11-21T05:35:07;16.80;;;2.63;;
3415;SDS011;1721;51.238;9.562;2023-11-21T05:37:37;8.13;;;3.15;;
3415;SDS011;1721;51.238;9.562;2023-11-21T05:40:06;5.57;;;2.58;;
3415;SDS011;1721;51.238;9.562;2023-11-21T05:42:33;8.00;;;3.33;;
3415;SDS011;1721;51.238;9.562;2023-11-21T05:44:59;8.63;;;3.35;;
3415;SDS011;1721;51.238;9.562;2023-11-21T05:47:35;5.97;;;2.42;;
3415;SDS011;1721;51.238;9.562;2023-11-21T05:50:19;11.52;;;3.03;;
3415;SDS011;1721;51.238;9.562;2023-11-21T05:52:45;6.63;;;2.63;;
3415;SDS011;1721;51.238;9.562;2023-11-21T05:55:11;11.60;;;2.90;;
3415;SDS011;1721;51.238;9.562;2023-11-21T05:57:38;7.05;;;2.70;;
3415;SDS011;1721;51.238;9.562;2023-11-21T06:00:09;7.63;;;3.22;;
3415;SDS011;1721;51.238;9.562;2023-11-21T06:02:37;8.45;;;2.88;;
3415;SDS011;1721;51.238;9.562;2023-11-21T06:05:06;7.63;;;3.97;;
3415;SDS011;1721;51.238;9.562;2023-11-21T06:07:33;20.80;;;4.10;;
3415;SDS011;1721;51.238;9.562;2023-11-21T06:09:58;13.13;;;4.53;;
3415;SDS011;1721;51.238;9.562;2023-11-21T06:12:24;28.20;;;5.70;;
3415;SDS011;1721;51.238;9.562;2023-11-21T06:14:50;12.87;;;4.80;;
3415;SDS011;1721;51.238;9.562;2023-11-21T06:17:16;12.75;;;4.38;;
3415;SDS011;1721;51.238;9.562;2023-11-21T06:19:42;8.27;;;3.28;;
3415;SDS011;1721;51.238;9.562;2023-11-21T06:22:10;10.63;;;3.72;;
3415;SDS011;1721;51.238;9.562;2023-11-21T06:24:36;9.77;;;4.20;;
3415;SDS011;1721;51.238;9.562;2023-11-21T06:27:03;18.23;;;3.50;;
3415;SDS011;1721;51.238;9.562;2023-11-21T06:29:29;11.65;;;4.95;;
3415;SDS011;1721;51.238;9.562;2023-11-21T06:31:55;13.80;;;3.97;;
3415;SDS011;1721;51.238;9.562;2023-11-21T06:34:21;15.20;;;4.80;;
3415;SDS011;1721;51.238;9.562;2023-11-21T06:36:46;23.87;;;4.67;;
3415;SDS011;1721;51.238;9.562;2023-11-21T06:39:12;26.63;;;5.50;;
3415;SDS011;1721;51.238;9.562;2023-11-21T06:41:40;43.88;;;6.05;;
3415;SDS011;1721;51.238;9.562;2023-11-21T06:44:05;11.70;;;4.97;;
3415;SDS011;1721;51.238;9.562;2023-11-21T06:46:31;16.53;;;5.60;;
3415;SDS011;1721;51.238;9.562;2023-11-21T06:48:56;18.20;;;5.10;;
3415;SDS011;1721;51.238;9.562;2023-11-21T06:51:22;32.00;;;7.00;;
3415;SDS011;1721;51.238;9.562;2023-11-21T06:53:47;17.73;;;5.17;;
3415;SDS011;1721;51.238;9.562;2023-11-21T06:56:16;24.33;;;6.93;;
3415;SDS011;1721;51.238;9.562;2023-11-21T06:58:43;35.15;;;6.32;;
3415;SDS011;1721;51.238;9.562;2023-11-21T07:01:10;18.35;;;7.40;;
3415;SDS011;1721;51.238;9.562;2023-11-21T07:03:36;16.50;;;6.20;;
3415;SDS011;1721;51.238;9.562;2023-11-21T07:06:02;49.43;;;7.50;;
3415;SDS011;1721;51.238;9.562;2023-11-21T07:08:28;38.05;;;6.30;;
3415;SDS011;1721;51.238;9.562;2023-11-21T07:10:54;46.10;;;6.20;;
3415;SDS011;1721;51.238;9.562;2023-11-21T07:13:19;27.23;;;5.27;;
3415;SDS011;1721;51.238;9.562;2023-11-21T07:15:46;21.15;;;5.28;;
3415;SDS011;1721;51.238;9.562;2023-11-21T07:18:13;17.38;;;5.35;;
3415;SDS011;1721;51.238;9.562;2023-11-21T07:20:39;24.27;;;5.23;;
3415;SDS011;1721;51.238;9.562;2023-11-21T07:23:04;14.00;;;4.53;;
3415;SDS011;1721;51.238;9.562;2023-11-21T07:25:31;11.45;;;4.50;;
3415;SDS011;1721;51.238;9.562;2023-11-21T07:27:58;19.10;;;5.50;;
3415;SDS011;1721;51.238;9.562;2023-11-21T07:30:24;14.07;;;5.80;;
3415;SDS011;1721;51.238;9.562;2023-11-21T07:32:50;18.87;;;5.90;;
3415;SDS011;1721;51.238;9.562;2023-11-21T07:35:15;9.07;;;3.73;;
3415;SDS011;1721;51.238;9.562;2023-11-21T07:37:41;11.37;;;4.60;;
3415;SDS011;1721;51.238;9.562;2023-11-21T07:40:08;14.05;;;4.97;;
3415;SDS011;1721;51.238;9.562;2023-11-21T07:42:34;10.60;;;4.57;;
3415;SDS011;1721;51.238;9.562;2023-11-21T07:44:59;12.37;;;5.57;;
3415;SDS011;1721;51.238;9.562;2023-11-21T07:47:25;9.40;;;4.23;;
3415;SDS011;1721;51.238;9.562;2023-11-21T07:49:52;11.10;;;4.80;;
3415;SDS011;1721;51.238;9.562;2023-11-21T07:52:18;11.23;;;4.15;;
3415;SDS011;1721;51.238;9.562;2023-11-21T07:54:46;14.18;;;4.70;;
3415;SDS011;1721;51.238;9.562;2023-11-21T07:57:11;14.33;;;5.70;;
3415;SDS011;1721;51.238;9.562;2023-11-21T07:59:38;15.52;;;4.25;;
3415;SDS011;1721;51.238;9.562;2023-11-21T08:02:07;11.02;;;4.57;;
3415;SDS011;1721;51.238;9.562;2023-11-21T08:04:32;11.40;;;5.63;;
3415;SDS011;1721;51.238;9.562;2023-11-21T08:06:59;16.00;;;5.10;;
3415;SDS011;1721;51.238;9.562;2023-11-21T08:09:24;15.77;;;5.37;;
3415;SDS011;1721;51.238;9.562;2023-11-21T08:11:50;17.70;;;5.07;;
3415;SDS011;1721;51.238;9.562;2023-11-21T08:14:18;14.02;;;5.50;;
3415;SDS011;1721;51.238;9.562;2023-11-21T08:16:43;24.30;;;4.90;;
3415;SDS011;1721;51.238;9.562;2023-11-21T08:19:09;15.50;;;5.80;;
3415;SDS011;1721;51.238;9.562;2023-11-21T08:21:36;21.30;;;5.15;;
3415;SDS011;1721;51.238;9.562;2023-11-21T08:24:04;14.63;;;5.78;;
3415;SDS011;1721;51.238;9.562;2023-11-21T08:26:30;15.82;;;5.50;;
3415;SDS011;1721;51.238;9.562;2023-11-21T08:28:56;13.93;;;4.80;;
3415;SDS011;1721;51.238;9.562;2023-11-21T08:31:25;21.03;;;6.00;;
3415;SDS011;1721;51.238;9.562;2023-11-21T08:33:51;10.73;;;5.18;;
3415;SDS011;1721;51.238;9.562;2023-11-21T08:36:19;13.30;;;5.43;;
3415;SDS011;1721;51.238;9.562;2023-11-21T08:38:46;8.93;;;4.57;;
3415;SDS011;1721;51.238;9.562;2023-11-21T08:41:11;13.43;;;4.70;;
3415;SDS011;1721;51.238;9.562;2023-11-21T08:43:37;14.10;;;4.93;;
3415;SDS011;1721;51.238;9.562;2023-11-21T08:46:04;12.32;;;5.40;;
3415;SDS011;1721;51.238;9.562;2023-11-21T08:48:36;12.52;;;4.78;;
3415;SDS011;1721;51.238;9.562;2023-11-21T08:51:02;11.23;;;4.90;;
3415;SDS011;1721;51.238;9.562;2023-11-21T08:53:29;13.48;;;4.45;;
3415;SDS011;1721;51.238;9.562;2023-11-21T08:55:56;12.02;;;5.97;;
3415;SDS011;1721;51.238;9.562;2023-11-21T08:58:22;17.00;;;6.47;;
3415;SDS011;1721;51.238;9.562;2023-11-21T09:00:47;23.60;;;6.57;;
3415;SDS011;1721;51.238;9.562;2023-11-21T09:03:13;14.40;;;4.27;;
3415;SDS011;1721;51.238;9.562;2023-11-21T09:05:39;12.20;;;4.40;;
3415;SDS011;1721;51.238;9.562;2023-11-21T09:08:05;14.05;;;4.88;;
3415;SDS011;1721;51.238;9.562;2023-11-21T09:10:32;19.80;;;7.80;;
3415;SDS011;1721;51.238;9.562;2023-11-21T09:13:01;18.35;;;5.97;;
3415;SDS011;1721;51.238;9.562;2023-11-21T09:15:27;17.70;;;5.80;;
3415;SDS011;1721;51.238;9.562;2023-11-21T09:17:53;21.20;;;6.30;;
3415;SDS011;1721;51.238;9.562;2023-11-21T09:20:18;22.60;;;6.47;;
3415;SDS011;1721;51.238;9.562;2023-11-21T09:22:47;24.23;;;5.93;;
3415;SDS011;1721;51.238;9.562;2023-11-21T09:25:13;16.30;;;6.57;;
3415;SDS011;1721;51.238;9.562;2023-11-21T09:27:39;21.83;;;7.00;;
3415;SDS011;1721;51.238;9.562;2023-11-21T09:30:05;15.70;;;5.87;;
3415;SDS011;1721;51.238;9.562;2023-11-21T09:32:34;19.95;;;6.78;;
3415;SDS011;1721;51.238;9.562;2023-11-21T09:35:02;11.20;;;5.50;;
3415;SDS011;1721;51.238;9.562;2023-11-21T09:37:28;19.70;;;7.28;;
3415;SDS011;1721;51.238;9.562;2023-11-21T09:39:55;27.60;;;7.53;;
3415;SDS011;1721;51.238;9.562;2023-11-21T09:42:25;20.97;;;6.90;;
3415;SDS011;1721;51.238;9.562;2023-11-21T09:47:29;20.58;;;6.78;;
3415;SDS011;1721;51.238;9.562;2023-11-21T09:49:56;21.27;;;6.10;;
3415;SDS011;1721;51.238;9.562;2023-11-21T09:52:26;19.85;;;7.80;;
3415;SDS011;1721;51.238;9.562;2023-11-21T09:54:52;16.27;;;7.30;;
3415;SDS011;1721;51.238;9.562;2023-11-21T09:57:21;20.17;;;6.80;;
3415;SDS011;1721;51.238;9.562;2023-11-21T09:59:52;19.88;;;7.40;;
3415;SDS011;1721;51.238;9.562;2023-11-21T10:02:24;14.82;;;6.10;;
3415;SDS011;1721;51.238;9.562;2023-11-21T10:04:53;17.67;;;6.50;;
3415;SDS011;1721;51.238;9.562;2023-11-21T10:07:20;26.67;;;7.40;;
3415;SDS011;1721;51.238;9.562;2023-11-21T10:09:46;17.35;;;6.50;;
3415;SDS011;1721;51.238;9.562;2023-11-21T10:12:13;16.00;;;6.43;;
3415;SDS011;1721;51.238;9.562;2023-11-21T10:14:41;22.75;;;5.70;;
3415;SDS011;1721;51.238;9.562;2023-11-21T10:17:09;15.52;;;5.70;;
3415;SDS011;1721;51.238;9.562;2023-11-21T10:19:37;19.25;;;7.45;;
3415;SDS011;1721;51.238;9.562;2023-11-21T10:22:04;20.25;;;7.07;;
3415;SDS011;1721;51.238;9.562;2023-11-21T10:24:32;18.58;;;5.95;;
3415;SDS011;1721;51.238;9.562;2023-11-21T10:26:58;25.85;;;7.28;;
3415;SDS011;1721;51.238;9.562;2023-11-21T10:29:23;17.50;;;6.50;;
3415;SDS011;1721;51.238;9.562;2023-11-21T10:31:51;19.65;;;6.47;;
3415;SDS011;1721;51.238;9.562;2023-11-21T10:34:20;20.90;;;8.23;;
3415;SDS011;1721;51.238;9.562;2023-11-21T10:36:46;20.00;;;8.15;;
3415;SDS011;1721;51.238;9.562;2023-11-21T10:39:19;21.80;;;6.23;;
3415;SDS011;1721;51.238;9.562;2023-11-21T10:41:46;22.08;;;6.72;;
3415;SDS011;1721;51.238;9.562;2023-11-21T10:44:18;21.40;;;8.23;;
3415;SDS011;1721;51.238;9.562;2023-11-21T10:46:48;20.27;;;6.25;;
3415;SDS011;1721;51.238;9.562;2023-11-21T10:49:19;15.05;;;5.63;;
3415;SDS011;1721;51.238;9.562;2023-11-21T10:51:45;15.85;;;6.93;;
3415;SDS011;1721;51.238;9.562;2023-11-21T10:54:11;15.10;;;6.17;;
3415;SDS011;1721;51.238;9.562;2023-11-21T10:56:37;15.35;;;5.63;;
3415;SDS011;1721;51.238;9.562;2023-11-21T10:59:08;20.55;;;7.20;;
3415;SDS011;1721;51.238;9.562;2023-11-21T11:01:39;23.25;;;5.88;;
3415;SDS011;1721;51.238;9.562;2023-11-21T11:04:08;15.70;;;5.90;;
3415;SDS011;1721;51.238;9.562;2023-11-21T11:06:39;13.95;;;6.07;;
3415;SDS011;1721;51.238;9.562;2023-11-21T11:09:07;14.98;;;5.50;;
3415;SDS011;1721;51.238;9.562;2023-11-21T11:11:33;16.90;;;5.55;;
3415;SDS011;1721;51.238;9.562;2023-11-21T11:14:01;17.65;;;7.57;;
3415;SDS011;1721;51.238;9.562;2023-11-21T11:16:28;18.52;;;7.40;;
3415;SDS011;1721;51.238;9.562;2023-11-21T11:18:54;19.42;;;7.13;;
3415;SDS011;1721;51.238;9.562;2023-11-21T11:26:37;21.63;;;9.02;;
3415;SDS011;1721;51.238;9.562;2023-11-21T11:32:04;21.60;;;7.72;;
3415;SDS011;1721;51.238;9.562;2023-11-21T11:34:57;19.85;;;6.75;;
3415;SDS011;1721;51.238;9.562;2023-11-21T11:37:35;17.02;;;6.90;;
3415;SDS011;1721;51.238;9.562;2023-11-21T11:40:00;22.70;;;7.40;;
3415;SDS011;1721;51.238;9.562;2023-11-21T11:42:30;13.48;;;6.18;;
3415;SDS011;1721;51.238;9.562;2023-11-21T11:44:57;19.73;;;7.18;;
3415;SDS011;1721;51.238;9.562;2023-11-21T11:47:32;16.60;;;6.90;;
3415;SDS011;1721;51.238;9.562;2023-11-21T11:50:10;15.15;;;5.93;;
3415;SDS011;1721;51.238;9.562;2023-11-21T11:52:50;14.90;;;6.07;;
3415;SDS011;1721;51.238;9.562;2023-11-21T11:55:20;21.90;;;6.85;;
3415;SDS011;1721;51.238;9.562;2023-11-21T11:57:47;20.02;;;7.47;;
3415;SDS011;1721;51.238;9.562;2023-11-21T12:02:47;16.73;;;6.53;;
3415;SDS011;1721;51.238;9.562;2023-11-21T12:05:14;15.93;;;5.78;;
3415;SDS011;1721;51.238;9.562;2023-11-21T12:07:43;17.60;;;6.13;;
3415;SDS011;1721;51.238;9.562;2023-11-21T12:10:14;17.45;;;6.10;;
3415;SDS011;1721;51.238;9.562;2023-11-21T12:12:43;13.05;;;6.00;;
3415;SDS011;1721;51.238;9.562;2023-11-21T12:15:12;15.65;;;5.10;;
3415;SDS011;1721;51.238;9.562;2023-11-21T12:17:39;9.50;;;4.03;;
3415;SDS011;1721;51.238;9.562;2023-11-21T12:20:06;7.30;;;3.60;;
3415;SDS011;1721;51.238;9.562;2023-11-21T12:22:40;12.07;;;4.88;;
3415;SDS011;1721;51.238;9.562;2023-11-21T12:25:08;10.52;;;4.53;;
3415;SDS011;1721;51.238;9.562;2023-11-21T12:27:33;12.83;;;5.13;;
3415;SDS011;1721;51.238;9.562;2023-11-21T12:30:00;11.57;;;4.50;;
3415;SDS011;1721;51.238;9.562;2023-11-21T12:32:25;11.50;;;4.80;;
3415;SDS011;1721;51.238;9.562;2023-11-21T12:34:51;8.97;;;3.80;;
3415;SDS011;1721;51.238;9.562;2023-11-21T12:37:17;11.50;;;4.23;;
3415;SDS011;1721;51.238;9.562;2023-11-21T12:39:43;11.98;;;5.05;;
3415;SDS011;1721;51.238;9.562;2023-11-21T12:42:09;15.83;;;4.87;;
3415;SDS011;1721;51.238;9.562;2023-11-21T12:44:35;12.00;;;4.45;;
3415;SDS011;1721;51.238;9.562;2023-11-21T12:47:02;11.30;;;3.97;;
3415;SDS011;1721;51.238;9.562;2023-11-21T12:49:28;9.63;;;4.10;;
3415;SDS011;1721;51.238;9.562;2023-11-21T12:51:54;11.10;;;4.13;;
3415;SDS011;1721;51.238;9.562;2023-11-21T12:54:19;17.63;;;5.10;;
3415;SDS011;1721;51.238;9.562;2023-11-21T12:56:45;12.70;;;5.00;;
3415;SDS011;1721;51.238;9.562;2023-11-21T12:59:14;15.82;;;4.78;;
3415;SDS011;1721;51.238;9.562;2023-11-21T13:01:42;9.85;;;4.53;;
3415;SDS011;1721;51.238;9.562;2023-11-21T13:04:07;15.05;;;5.43;;
3415;SDS011;1721;51.238;9.562;2023-11-21T13:06:36;12.43;;;4.82;;
3415;SDS011;1721;51.238;9.562;2023-11-21T13:09:06;12.55;;;4.57;;
3415;SDS011;1721;51.238;9.562;2023-11-21T13:11:35;14.30;;;5.00;;
3415;SDS011;1721;51.238;9.562;2023-11-21T13:14:02;13.73;;;4.95;;
3415;SDS011;1721;51.238;9.562;2023-11-21T13:16:28;10.23;;;4.85;;
3415;SDS011;1721;51.238;9.562;2023-11-21T13:18:55;8.32;;;4.30;;
3415;SDS011;1721;51.238;9.562;2023-11-21T13:21:20;11.43;;;3.63;;
3415;SDS011;1721;51.238;9.562;2023-11-21T13:23:47;9.63;;;3.67;;
3415;SDS011;1721;51.238;9.562;2023-11-21T13:26:15;10.32;;;4.53;;
3415;SDS011;1721;51.238;9.562;2023-11-21T13:28:40;12.60;;;3.90;;
3415;SDS011;1721;51.238;9.562;2023-11-21T13:31:11;8.20;;;2.85;;
3415;SDS011;1721;51.238;9.562;2023-11-21T13:34:02;7.45;;;3.53;;
3415;SDS011;1721;51.238;9.562;2023-11-21T13:36:33;5.03;;;2.00;;
3415;SDS011;1721;51.238;9.562;2023-11-21T13:39:00;4.93;;;2.35;;
3415;SDS011;1721;51.238;9.562;2023-11-21T13:41:40;4.63;;;0.90;;
3415;SDS011;1721;51.238;9.562;2023-11-21T13:44:06;4.43;;;1.20;;
3415;SDS011;1721;51.238;9.562;2023-11-21T13:46:51;4.40;;;1.55;;
3415;SDS011;1721;51.238;9.562;2023-11-21T13:49:17;3.30;;;1.30;;
3415;SDS011;1721;51.238;9.562;2023-11-21T13:51:43;4.32;;;1.38;;
3415;SDS011;1721;51.238;9.562;2023-11-21T13:54:15;3.55;;;1.42;;
3415;SDS011;1721;51.238;9.562;2023-11-21T13:56:41;3.50;;;1.10;;
3415;SDS011;1721;51.238;9.562;2023-11-21T13:59:09;4.85;;;2.00;;
3415;SDS011;1721;51.238;9.562;2023-11-21T14:01:55;5.95;;;2.20;;
3415;SDS011;1721;51.238;9.562;2023-11-21T14:04:25;5.32;;;2.42;;
3415;SDS011;1721;51.238;9.562;2023-11-21T14:06:57;5.00;;;2.33;;
3415;SDS011;1721;51.238;9.562;2023-11-21T14:09:25;5.93;;;2.28;;
3415;SDS011;1721;51.238;9.562;2023-11-21T14:11:57;5.75;;;2.40;;
3415;SDS011;1721;51.238;9.562;2023-11-21T14:14:25;6.25;;;2.08;;
3415;SDS011;1721;51.238;9.562;2023-11-21T14:16:53;8.02;;;3.08;;
3415;SDS011;1721;51.238;9.562;2023-11-21T14:19:20;8.10;;;3.60;;
3415;SDS011;1721;51.238;9.562;2023-11-21T14:21:47;7.00;;;2.58;;
3415;SDS011;1721;51.238;9.562;2023-11-21T14:24:16;6.25;;;2.80;;
3415;SDS011;1721;51.238;9.562;2023-11-21T14:26:43;7.05;;;2.88;;
3415;SDS011;1721;51.238;9.562;2023-11-21T14:29:13;6.38;;;2.60;;
3415;SDS011;1721;51.238;9.562;2023-11-21T14:31:42;6.80;;;2.60;;
3415;SDS011;1721;51.238;9.562;2023-11-21T14:34:08;5.97;;;2.83;;
3415;SDS011;1721;51.238;9.562;2023-11-21T14:36:34;10.17;;;3.23;;
3415;SDS011;1721;51.238;9.562;2023-11-21T14:39:01;5.70;;;2.72;;
3415;SDS011;1721;51.238;9.562;2023-11-21T14:41:32;6.85;;;3.03;;
3415;SDS011;1721;51.238;9.562;2023-11-21T14:44:00;9.68;;;3.58;;
3415;SDS011;1721;51.238;9.562;2023-11-21T14:46:28;11.27;;;3.95;;
3415;SDS011;1721;51.238;9.562;2023-11-21T14:48:54;11.27;;;3.87;;
3415;SDS011;1721;51.238;9.562;2023-11-21T14:51:43;6.53;;;2.47;;
3415;SDS011;1721;51.238;9.562;2023-11-21T14:54:35;8.45;;;4.70;;
3415;SDS011;1721;51.238;9.562;2023-11-21T14:57:03;9.82;;;3.50;;
3415;SDS011;1721;51.238;9.562;2023-11-21T14:59:32;6.97;;;2.80;;
3415;SDS011;1721;51.238;9.562;2023-11-21T15:01:57;8.37;;;4.07;;
3415;SDS011;1721;51.238;9.562;2023-11-21T15:04:25;5.90;;;2.65;;
3415;SDS011;1721;51.238;9.562;2023-11-21T15:07:01;7.75;;;2.70;;
3415;SDS011;1721;51.238;9.562;2023-11-21T15:09:31;8.00;;;2.92;;
3415;SDS011;1721;51.238;9.562;2023-11-21T15:11:57;10.55;;;3.22;;
3415;SDS011;1721;51.238;9.562;2023-11-21T15:14:34;7.72;;;2.75;;
3415;SDS011;1721;51.238;9.562;2023-11-21T15:17:01;8.05;;;3.10;;
3415;SDS011;1721;51.238;9.562;2023-11-21T15:19:30;14.63;;;4.45;;
3415;SDS011;1721;51.238;9.562;2023-11-21T15:21:56;11.35;;;3.60;;